Flight Track Log - Related Links

Times and Time Zones

All times are in EDT time to prevent confusion due to time zone crossing. See the N129TT flight status page for this flight to view local times or setup timezone preferences in your user account.

Time Position Orientation Groundspeed Altitude Reporting Facility
EDT Latitude Longitude Course Direction KTS MPH feet Rate Location/Type
Thu 09:26:46 AM 45.1861 -92.4797 35° Northeast 144 166 5,300  Level Minneapolis Center
Thu 09:27:48 AM 45.2233 -92.4503 29° Northeast 152 175 7,000 1,161 Climbing Minneapolis Center
Thu 09:28:50 AM 45.2800 -92.4078 28° Northeast 230 265 7,700 1,317 Climbing Minneapolis Center
Thu 09:29:51 AM 45.3392 -92.3622 28° Northeast 225 259 9,700 1,659 Climbing Minneapolis Center
Thu 09:30:53 AM 45.3903 -92.3300 24° Northeast 213 245 11,100 1,306 Climbing Minneapolis Center
Thu 09:31:55 AM 45.4444 -92.2889 28° Northeast 220 253 12,400 1,268 Climbing Minneapolis Center
Thu 09:32:00 AM 45.4311 -92.2749 35° Northeast  Level Estimated
Thu 09:32:56 AM 45.4978 -92.2439 31° Northeast 225 259 13,700  Level Minneapolis Center
Thu 09:33:58 AM 45.5500 -92.1953 33° Northeast 224 258 15,000 683 Climbing Minneapolis Center
Thu 09:34:59 AM 45.6028 -92.1411 36° Northeast 229 264 15,100  Climbing Minneapolis Center
Thu 09:36:01 AM 45.6808 -92.0703 32° Northeast 274 315 15,000 -48 Descending Minneapolis Center
Thu 09:37:03 AM 45.7461 -92.0075 34° Northeast 281 323 15,000  Level Minneapolis Center
Thu 09:38:04 AM 45.8136 -91.9414 34° Northeast 281 323 15,000  Level Minneapolis Center
Thu 09:39:06 AM 45.8789 -91.8781 34° Northeast 283 326 15,000  Level Minneapolis Center
Thu 09:40:08 AM 45.9453 -91.8156 33° Northeast 284 327 15,000  Level Minneapolis Center
Thu 09:41:09 AM 46.0097 -91.7514 35° Northeast 283 326 15,000  Level Minneapolis Center
Thu 09:42:11 AM 46.0756 -91.6878 34° Northeast 284 327 15,000  Level Minneapolis Center
Thu 09:43:13 AM 46.1411 -91.6219 35° Northeast 285 328 15,000  Level Minneapolis Center
Thu 09:44:15 AM 46.2197 -91.5442 34° Northeast 286 329 15,000  Level Minneapolis Center
Thu 09:45:16 AM 46.2861 -91.4786 34° Northeast 287 330 15,000  Level Minneapolis Center
Thu 09:46:18 AM 46.3525 -91.4142 34° Northeast 287 330 15,000  Level Minneapolis Center
Thu 09:47:20 AM 46.4178 -91.3497 34° Northeast 287 330 15,000  Level Minneapolis Center
Thu 09:48:21 AM 46.4847 -91.2831 34° Northeast 288 331 15,000  Level Minneapolis Center
Thu 09:49:23 AM 46.5489 -91.2214 33° Northeast 283 326 15,000  Level Minneapolis Center
Thu 09:50:25 AM 46.6147 -91.1542 35° Northeast 285 328 15,000  Level Minneapolis Center
Thu 09:51:26 AM 46.6800 -91.0892 34° Northeast 285 328 15,000  Level Minneapolis Center
Thu 09:52:28 AM 46.7581 -91.0103 35° Northeast 285 328 15,000  Level Minneapolis Center
Thu 09:53:30 AM 46.8219 -90.9453 35° Northeast 282 325 15,000  Level Minneapolis Center
Thu 09:54:32 AM 46.8864 -90.8803 35° Northeast 281 323 15,000  Level Minneapolis Center
Thu 09:55:33 AM 46.9506 -90.8144 35° Northeast 281 323 15,000  Level Minneapolis Center
Thu 09:56:35 AM 47.0064 -90.7578 35° Northeast 281 323 15,000  Level Minneapolis Center
Thu 09:57:37 AM 47.0822 -90.6808 35° Northeast 278 320 15,000  Level Minneapolis Center
Thu 09:58:38 AM 47.1444 -90.6172 35° Northeast 277 319 15,000  Level Minneapolis Center
Thu 09:59:42 AM 47.2067 -90.5519 35° Northeast 276 318 15,000 -288 Level Minneapolis Center
Thu 10:00:43 AM 47.2700 -90.4869 35° Northeast 276 318 14,400 -488 Descending Minneapolis Center
Thu 10:01:45 AM 47.3367 -90.4183 35° Northeast 286 329 14,000 -435 Descending Minneapolis Center
Thu 10:02:47 AM 47.4153 -90.3358 35° Northeast 289 333 13,500 -435 Descending Minneapolis Center
Thu 10:03:49 AM 47.4806 -90.2686 35° Northeast 288 331 13,100 -439 Descending Minneapolis Center
Thu 10:04:50 AM 47.5444 -90.2019 35° Northeast 290 334 12,600 -488 Descending Minneapolis Center
Thu 10:05:52 AM 47.6086 -90.1347 35° Northeast 285 328 12,100 -726 Descending Minneapolis Center
Thu 10:06:54 AM 47.6739 -90.0689 34° Northeast 284 327 11,100 -1,016 Descending Minneapolis Center
Thu 10:07:56 AM 47.7586 -89.9922 31° Northeast 291 335 10,000 -1,500 Descending Minneapolis Center
Thu 10:08:58 AM 47.8314 -89.9344 28° Northeast 295 339 8,000 -1,805 Descending Minneapolis Center
Thu 10:09:59 AM 47.9156 -89.8761 25° Northeast 303 349 6,300 -1,984 Descending Minneapolis Center
Thu 10:11:02 AM 47.9500 -89.7667 65° Northeast 290 334 3,900 -1,171 Descending Winnipeg Center
Thu 10:12:02 AM 48.0333 -89.7333 15° North 260 299 3,900 -250 Level Winnipeg Center
Thu 10:13:02 AM 48.1000 -89.6833 27° Northeast 260 299 3,400 -300 Descending Winnipeg Center
Thu 10:14:02 AM 48.1500 -89.6500 24° Northeast 250 288 3,300 -100 Descending Winnipeg Center
Thu 10:15:02 AM 48.2167 -89.5833 34° Northeast 250 288 3,200 -50 Descending Winnipeg Center
Thu 10:16:02 AM 48.2833 -89.5500 18° North 250 288 3,200  Level Winnipeg Center
Thu 10:17:02 AM 48.3000 -89.4667 73° East 200 230 3,200 -550 Level Winnipeg Center
Thu 10:18:02 AM 48.3333 -89.3833 59° Northeast 170 196 2,100 -950 Descending Winnipeg Center
Thu 10:19:02 AM 48.3500 -89.3333 63° Northeast 130 150 1,300 -700 Descending Winnipeg Center
Thu 10:20:02 AM 48.3500 -89.2833 90° East 110 127 700 -350 Descending Winnipeg Center
Thu 10:21:02 AM 48.3500 -89.2667 90° East 40 46 600 -50 Descending Winnipeg Center
Thu 10:22:01 AM 48.3667 -89.2833 326° Northwest 10 12 600  Level Winnipeg Center

Login

Don't have an account? Register now (free) for customized features, flight alerts, and more!